createdAt,value
2022-08-05T00:00:02.249Z,48
2022-08-05T00:20:03.366Z,50
2022-08-05T00:40:02.934Z,51
2022-08-05T01:00:02.305Z,53
2022-08-05T01:20:03.847Z,53
2022-08-05T01:40:03.297Z,54
2022-08-05T02:00:02.586Z,54
2022-08-05T02:20:07.891Z,54
2022-08-05T02:40:02.030Z,55
2022-08-05T03:00:02.168Z,57
2022-08-05T03:20:02.383Z,57
2022-08-05T03:40:05.264Z,58
2022-08-05T04:00:02.539Z,59
2022-08-05T04:20:04.955Z,59
2022-08-05T04:40:02.238Z,59
2022-08-05T05:00:02.808Z,59
2022-08-05T05:20:05.427Z,58
2022-08-05T05:40:07.674Z,56
2022-08-05T06:00:04.321Z,54
2022-08-05T06:20:02.490Z,53
2022-08-05T06:40:07.646Z,56
2022-08-05T07:00:04.954Z,55
2022-08-05T07:20:34.247Z,51
2022-08-05T07:40:27.188Z,48
2022-08-05T08:00:02.493Z,46
2022-08-05T08:21:00.818Z,45
2022-08-05T08:40:04.632Z,44
2022-08-05T09:00:04.534Z,43
2022-08-05T09:20:08.673Z,45
2022-08-05T09:40:03.055Z,47
2022-08-05T10:00:08.470Z,50
2022-08-05T10:20:12.023Z,51
2022-08-05T10:40:18.719Z,57
2022-08-05T11:00:16.349Z,63
2022-08-05T11:20:17.717Z,65
2022-08-05T11:40:04.848Z,68
2022-08-05T12:00:02.548Z,66
2022-08-05T12:20:33.633Z,58
2022-08-05T12:40:11.405Z,57
2022-08-05T13:02:07.262Z,54
2022-08-05T13:20:02.740Z,52
2022-08-05T13:40:27.580Z,50
2022-08-05T14:00:02.920Z,49
2022-08-05T14:20:07.524Z,48
2022-08-05T14:40:03.359Z,48
2022-08-05T15:00:02.722Z,48
2022-08-05T15:20:03.254Z,50
2022-08-05T15:41:21.706Z,53
2022-08-05T16:00:02.947Z,54
2022-08-05T16:20:11.906Z,57
2022-08-05T16:40:07.488Z,59
2022-08-05T17:00:10.485Z,61
2022-08-05T17:20:03.115Z,61
2022-08-05T17:40:03.144Z,62
2022-08-05T18:00:06.032Z,64
2022-08-05T18:20:02.301Z,65
2022-08-05T18:42:00.969Z,65
2022-08-05T19:00:19.921Z,65
2022-08-05T19:20:08.048Z,65
2022-08-05T19:40:10.624Z,65
2022-08-05T20:00:09.406Z,65
2022-08-05T20:20:11.026Z,65
2022-08-05T20:40:02.666Z,61
2022-08-05T21:00:41.796Z,61
2022-08-05T21:20:10.493Z,60
2022-08-05T21:40:05.900Z,60
2022-08-05T22:00:11.045Z,61
2022-08-05T22:20:14.810Z,63
2022-08-05T22:40:09.242Z,65
2022-08-05T23:00:08.103Z,67
2022-08-05T23:20:02.923Z,68
2022-08-05T23:40:10.864Z,68
